sensor_id;sensor_type;location;lat;lon;timestamp;P1;durP1;ratioP1;P2;durP2;ratioP2
10416;SDS011;62605;49.432;8.680;2023-05-07T00:01:02;1.30;;;0.90;;
10416;SDS011;62605;49.432;8.680;2023-05-07T00:03:31;1.00;;;0.90;;
10416;SDS011;62605;49.432;8.680;2023-05-07T00:05:58;0.90;;;0.90;;
10416;SDS011;62605;49.432;8.680;2023-05-07T00:08:26;2.15;;;0.90;;
10416;SDS011;62605;49.432;8.680;2023-05-07T00:10:52;1.08;;;0.98;;
10416;SDS011;62605;49.432;8.680;2023-05-07T00:13:21;2.08;;;1.50;;
10416;SDS011;62605;49.432;8.680;2023-05-07T00:15:48;1.45;;;1.23;;
10416;SDS011;62605;49.432;8.680;2023-05-07T00:18:15;2.10;;;1.48;;
10416;SDS011;62605;49.432;8.680;2023-05-07T00:20:46;1.10;;;1.00;;
10416;SDS011;62605;49.432;8.680;2023-05-07T00:23:13;1.30;;;1.20;;
10416;SDS011;62605;49.432;8.680;2023-05-07T00:25:40;1.30;;;1.20;;
10416;SDS011;62605;49.432;8.680;2023-05-07T00:28:06;2.05;;;1.10;;
10416;SDS011;62605;49.432;8.680;2023-05-07T00:30:35;1.20;;;1.10;;
10416;SDS011;62605;49.432;8.680;2023-05-07T00:33:02;1.50;;;1.13;;
10416;SDS011;62605;49.432;8.680;2023-05-07T00:35:29;1.58;;;0.98;;
10416;SDS011;62605;49.432;8.680;2023-05-07T00:37:56;0.77;;;0.77;;
10416;SDS011;62605;49.432;8.680;2023-05-07T00:40:23;1.42;;;0.90;;
10416;SDS011;62605;49.432;8.680;2023-05-07T00:42:50;0.80;;;0.80;;
10416;SDS011;62605;49.432;8.680;2023-05-07T00:45:21;0.90;;;0.90;;
10416;SDS011;62605;49.432;8.680;2023-05-07T00:47:53;0.80;;;0.80;;
10416;SDS011;62605;49.432;8.680;2023-05-07T00:50:21;0.88;;;0.88;;
10416;SDS011;62605;49.432;8.680;2023-05-07T00:52:48;1.08;;;0.90;;
10416;SDS011;62605;49.432;8.680;2023-05-07T00:55:15;0.60;;;0.60;;
10416;SDS011;62605;49.432;8.680;2023-05-07T00:57:42;1.90;;;1.00;;
10416;SDS011;62605;49.432;8.680;2023-05-07T01:00:16;0.77;;;0.77;;
10416;SDS011;62605;49.432;8.680;2023-05-07T01:02:44;0.98;;;0.93;;
10416;SDS011;62605;49.432;8.680;2023-05-07T01:05:23;1.80;;;0.90;;
10416;SDS011;62605;49.432;8.680;2023-05-07T01:07:52;1.10;;;1.00;;
10416;SDS011;62605;49.432;8.680;2023-05-07T01:10:21;1.60;;;0.88;;
10416;SDS011;62605;49.432;8.680;2023-05-07T01:12:49;1.63;;;0.90;;
10416;SDS011;62605;49.432;8.680;2023-05-07T01:15:17;0.70;;;0.70;;
10416;SDS011;62605;49.432;8.680;2023-05-07T01:17:45;1.95;;;1.08;;
10416;SDS011;62605;49.432;8.680;2023-05-07T01:20:14;2.70;;;0.85;;
10416;SDS011;62605;49.432;8.680;2023-05-07T01:22:43;1.05;;;0.90;;
10416;SDS011;62605;49.432;8.680;2023-05-07T01:25:10;2.53;;;1.23;;
10416;SDS011;62605;49.432;8.680;2023-05-07T01:27:38;0.80;;;0.80;;
10416;SDS011;62605;49.432;8.680;2023-05-07T01:30:06;0.88;;;0.88;;
10416;SDS011;62605;49.432;8.680;2023-05-07T01:32:35;0.70;;;0.70;;
10416;SDS011;62605;49.432;8.680;2023-05-07T01:35:05;0.90;;;0.90;;
10416;SDS011;62605;49.432;8.680;2023-05-07T01:37:34;3.08;;;0.95;;
10416;SDS011;62605;49.432;8.680;2023-05-07T01:40:04;0.93;;;0.93;;
10416;SDS011;62605;49.432;8.680;2023-05-07T01:42:32;0.80;;;0.80;;
10416;SDS011;62605;49.432;8.680;2023-05-07T01:44:59;0.98;;;0.93;;
10416;SDS011;62605;49.432;8.680;2023-05-07T01:47:34;1.75;;;0.90;;
10416;SDS011;62605;49.432;8.680;2023-05-07T01:50:03;0.80;;;0.80;;
10416;SDS011;62605;49.432;8.680;2023-05-07T01:52:44;1.20;;;0.80;;
10416;SDS011;62605;49.432;8.680;2023-05-07T01:55:12;0.75;;;0.75;;
10416;SDS011;62605;49.432;8.680;2023-05-07T01:57:46;1.70;;;0.88;;
10416;SDS011;62605;49.432;8.680;2023-05-07T02:00:13;0.90;;;0.90;;
10416;SDS011;62605;49.432;8.680;2023-05-07T02:02:47;0.90;;;0.90;;
10416;SDS011;62605;49.432;8.680;2023-05-07T02:05:15;1.30;;;0.75;;
10416;SDS011;62605;49.432;8.680;2023-05-07T02:07:42;0.80;;;0.80;;
10416;SDS011;62605;49.432;8.680;2023-05-07T02:10:09;0.70;;;0.70;;
10416;SDS011;62605;49.432;8.680;2023-05-07T02:12:38;1.33;;;0.93;;
10416;SDS011;62605;49.432;8.680;2023-05-07T02:15:05;0.90;;;0.90;;
10416;SDS011;62605;49.432;8.680;2023-05-07T02:17:32;0.77;;;0.77;;
10416;SDS011;62605;49.432;8.680;2023-05-07T02:20:00;0.82;;;0.82;;
10416;SDS011;62605;49.432;8.680;2023-05-07T02:22:28;0.80;;;0.80;;
10416;SDS011;62605;49.432;8.680;2023-05-07T02:24:58;0.82;;;0.82;;
10416;SDS011;62605;49.432;8.680;2023-05-07T02:27:25;2.05;;;0.80;;
10416;SDS011;62605;49.432;8.680;2023-05-07T02:29:54;1.48;;;0.70;;
10416;SDS011;62605;49.432;8.680;2023-05-07T02:32:21;0.60;;;0.60;;
10416;SDS011;62605;49.432;8.680;2023-05-07T02:34:50;0.73;;;0.73;;
10416;SDS011;62605;49.432;8.680;2023-05-07T02:37:17;1.92;;;1.00;;
10416;SDS011;62605;49.432;8.680;2023-05-07T02:39:47;0.98;;;0.80;;
10416;SDS011;62605;49.432;8.680;2023-05-07T02:42:14;1.33;;;1.10;;
10416;SDS011;62605;49.432;8.680;2023-05-07T02:44:41;0.80;;;0.70;;
10416;SDS011;62605;49.432;8.680;2023-05-07T02:47:10;0.80;;;0.80;;
10416;SDS011;62605;49.432;8.680;2023-05-07T02:49:38;1.00;;;0.90;;
10416;SDS011;62605;49.432;8.680;2023-05-07T02:52:05;1.88;;;1.13;;
10416;SDS011;62605;49.432;8.680;2023-05-07T02:54:39;1.00;;;0.90;;
10416;SDS011;62605;49.432;8.680;2023-05-07T02:57:13;3.28;;;1.40;;
10416;SDS011;62605;49.432;8.680;2023-05-07T02:59:40;1.48;;;1.38;;
10416;SDS011;62605;49.432;8.680;2023-05-07T03:02:08;1.52;;;1.38;;
10416;SDS011;62605;49.432;8.680;2023-05-07T03:04:36;1.92;;;1.75;;
10416;SDS011;62605;49.432;8.680;2023-05-07T03:07:04;2.55;;;1.63;;
10416;SDS011;62605;49.432;8.680;2023-05-07T03:09:32;1.58;;;1.48;;
10416;SDS011;62605;49.432;8.680;2023-05-07T03:12:00;2.53;;;1.60;;
10416;SDS011;62605;49.432;8.680;2023-05-07T03:14:27;1.38;;;1.20;;
10416;SDS011;62605;49.432;8.680;2023-05-07T03:16:55;1.33;;;1.23;;
10416;SDS011;62605;49.432;8.680;2023-05-07T03:19:25;1.92;;;1.30;;
10416;SDS011;62605;49.432;8.680;2023-05-07T03:21:53;1.50;;;1.20;;
10416;SDS011;62605;49.432;8.680;2023-05-07T03:24:20;1.55;;;1.30;;
10416;SDS011;62605;49.432;8.680;2023-05-07T03:26:47;1.73;;;1.25;;
10416;SDS011;62605;49.432;8.680;2023-05-07T03:29:14;1.50;;;1.40;;
10416;SDS011;62605;49.432;8.680;2023-05-07T03:31:42;1.80;;;1.40;;
10416;SDS011;62605;49.432;8.680;2023-05-07T03:34:09;1.45;;;1.35;;
10416;SDS011;62605;49.432;8.680;2023-05-07T03:36:37;1.33;;;1.23;;
10416;SDS011;62605;49.432;8.680;2023-05-07T03:39:07;1.88;;;1.30;;
10416;SDS011;62605;49.432;8.680;2023-05-07T03:41:34;2.13;;;1.70;;
10416;SDS011;62605;49.432;8.680;2023-05-07T03:44:04;1.83;;;1.58;;
10416;SDS011;62605;49.432;8.680;2023-05-07T03:46:31;1.98;;;1.67;;
10416;SDS011;62605;49.432;8.680;2023-05-07T03:48:58;1.90;;;1.80;;
10416;SDS011;62605;49.432;8.680;2023-05-07T03:51:26;2.42;;;1.75;;
10416;SDS011;62605;49.432;8.680;2023-05-07T03:53:55;2.70;;;1.98;;
10416;SDS011;62605;49.432;8.680;2023-05-07T03:56:23;1.67;;;1.58;;
10416;SDS011;62605;49.432;8.680;2023-05-07T03:58:51;1.80;;;1.65;;
10416;SDS011;62605;49.432;8.680;2023-05-07T04:01:18;2.03;;;1.70;;
10416;SDS011;62605;49.432;8.680;2023-05-07T04:03:45;2.28;;;1.55;;
10416;SDS011;62605;49.432;8.680;2023-05-07T04:06:12;1.83;;;1.40;;
10416;SDS011;62605;49.432;8.680;2023-05-07T04:08:39;1.88;;;1.60;;
10416;SDS011;62605;49.432;8.680;2023-05-07T04:11:08;1.83;;;1.47;;
10416;SDS011;62605;49.432;8.680;2023-05-07T04:13:35;3.27;;;1.40;;
10416;SDS011;62605;49.432;8.680;2023-05-07T04:16:11;2.20;;;1.70;;
10416;SDS011;62605;49.432;8.680;2023-05-07T04:18:47;2.93;;;1.90;;
10416;SDS011;62605;49.432;8.680;2023-05-07T04:21:14;2.17;;;1.67;;
10416;SDS011;62605;49.432;8.680;2023-05-07T04:23:45;2.03;;;1.80;;
10416;SDS011;62605;49.432;8.680;2023-05-07T04:26:14;2.47;;;1.98;;
10416;SDS011;62605;49.432;8.680;2023-05-07T04:28:42;1.83;;;1.67;;
10416;SDS011;62605;49.432;8.680;2023-05-07T04:31:09;2.50;;;1.67;;
10416;SDS011;62605;49.432;8.680;2023-05-07T04:33:37;1.90;;;1.60;;
10416;SDS011;62605;49.432;8.680;2023-05-07T04:36:05;1.90;;;1.70;;
10416;SDS011;62605;49.432;8.680;2023-05-07T04:38:32;2.05;;;1.85;;
10416;SDS011;62605;49.432;8.680;2023-05-07T04:41:02;2.47;;;1.80;;
10416;SDS011;62605;49.432;8.680;2023-05-07T04:43:31;1.60;;;1.50;;
10416;SDS011;62605;49.432;8.680;2023-05-07T04:45:58;2.58;;;1.98;;
10416;SDS011;62605;49.432;8.680;2023-05-07T04:48:28;2.42;;;2.10;;
10416;SDS011;62605;49.432;8.680;2023-05-07T04:50:56;2.22;;;2.03;;
10416;SDS011;62605;49.432;8.680;2023-05-07T04:53:23;2.00;;;1.80;;
10416;SDS011;62605;49.432;8.680;2023-05-07T04:55:54;2.85;;;1.90;;
10416;SDS011;62605;49.432;8.680;2023-05-07T04:58:22;3.40;;;1.85;;
10416;SDS011;62605;49.432;8.680;2023-05-07T05:00:50;2.22;;;1.88;;
10416;SDS011;62605;49.432;8.680;2023-05-07T05:03:18;2.10;;;1.85;;
10416;SDS011;62605;49.432;8.680;2023-05-07T05:05:45;2.42;;;1.80;;
10416;SDS011;62605;49.432;8.680;2023-05-07T05:08:12;2.67;;;2.08;;
10416;SDS011;62605;49.432;8.680;2023-05-07T05:10:40;1.98;;;1.80;;
10416;SDS011;62605;49.432;8.680;2023-05-07T05:13:08;3.80;;;1.97;;
10416;SDS011;62605;49.432;8.680;2023-05-07T05:15:39;6.18;;;2.20;;
10416;SDS011;62605;49.432;8.680;2023-05-07T05:18:07;3.17;;;2.10;;
10416;SDS011;62605;49.432;8.680;2023-05-07T05:20:35;4.97;;;2.05;;
10416;SDS011;62605;49.432;8.680;2023-05-07T05:23:05;3.08;;;2.17;;
10416;SDS011;62605;49.432;8.680;2023-05-07T05:32:01;2.70;;;1.98;;
10416;SDS011;62605;49.432;8.680;2023-05-07T05:34:30;3.08;;;2.25;;
10416;SDS011;62605;49.432;8.680;2023-05-07T05:37:00;2.83;;;2.03;;
10416;SDS011;62605;49.432;8.680;2023-05-07T05:39:27;3.10;;;2.22;;
10416;SDS011;62605;49.432;8.680;2023-05-07T05:41:54;2.75;;;2.17;;
10416;SDS011;62605;49.432;8.680;2023-05-07T05:44:21;2.58;;;2.00;;
10416;SDS011;62605;49.432;8.680;2023-05-07T05:46:48;2.88;;;2.08;;
10416;SDS011;62605;49.432;8.680;2023-05-07T05:49:15;2.22;;;1.83;;
10416;SDS011;62605;49.432;8.680;2023-05-07T05:51:44;1.92;;;1.80;;
10416;SDS011;62605;49.432;8.680;2023-05-07T05:54:11;2.83;;;2.20;;
10416;SDS011;62605;49.432;8.680;2023-05-07T05:56:38;3.08;;;1.70;;
10416;SDS011;62605;49.432;8.680;2023-05-07T05:59:05;3.20;;;1.83;;
10416;SDS011;62605;49.432;8.680;2023-05-07T06:01:32;3.85;;;1.75;;
10416;SDS011;62605;49.432;8.680;2023-05-07T06:03:59;2.25;;;2.05;;
10416;SDS011;62605;49.432;8.680;2023-05-07T06:06:26;2.08;;;1.85;;
10416;SDS011;62605;49.432;8.680;2023-05-07T06:08:55;2.70;;;2.15;;
10416;SDS011;62605;49.432;8.680;2023-05-07T06:11:23;2.22;;;2.00;;
10416;SDS011;62605;49.432;8.680;2023-05-07T06:13:50;1.98;;;1.77;;
10416;SDS011;62605;49.432;8.680;2023-05-07T06:16:17;2.28;;;2.08;;
10416;SDS011;62605;49.432;8.680;2023-05-07T06:18:44;2.50;;;2.03;;
10416;SDS011;62605;49.432;8.680;2023-05-07T06:21:13;2.17;;;1.90;;
10416;SDS011;62605;49.432;8.680;2023-05-07T06:23:40;9.38;;;2.22;;
10416;SDS011;62605;49.432;8.680;2023-05-07T06:26:08;2.22;;;2.03;;
10416;SDS011;62605;49.432;8.680;2023-05-07T06:28:35;2.33;;;2.00;;
10416;SDS011;62605;49.432;8.680;2023-05-07T06:31:12;4.13;;;2.33;;
10416;SDS011;62605;49.432;8.680;2023-05-07T06:33:39;2.17;;;1.90;;
10416;SDS011;62605;49.432;8.680;2023-05-07T06:36:06;2.67;;;1.92;;
10416;SDS011;62605;49.432;8.680;2023-05-07T06:38:34;2.28;;;2.08;;
10416;SDS011;62605;49.432;8.680;2023-05-07T06:41:01;2.10;;;1.88;;
10416;SDS011;62605;49.432;8.680;2023-05-07T06:43:29;4.20;;;2.28;;
10416;SDS011;62605;49.432;8.680;2023-05-07T06:45:56;2.17;;;1.92;;
10416;SDS011;62605;49.432;8.680;2023-05-07T06:48:24;3.45;;;2.25;;
10416;SDS011;62605;49.432;8.680;2023-05-07T06:50:51;4.53;;;2.40;;
10416;SDS011;62605;49.432;8.680;2023-05-07T06:53:21;2.30;;;2.10;;
10416;SDS011;62605;49.432;8.680;2023-05-07T06:55:48;3.42;;;2.17;;
10416;SDS011;62605;49.432;8.680;2023-05-07T06:58:16;2.47;;;2.25;;
10416;SDS011;62605;49.432;8.680;2023-05-07T07:00:44;3.53;;;2.28;;
10416;SDS011;62605;49.432;8.680;2023-05-07T07:03:11;2.38;;;2.17;;
10416;SDS011;62605;49.432;8.680;2023-05-07T07:05:39;2.53;;;2.33;;
10416;SDS011;62605;49.432;8.680;2023-05-07T07:08:07;2.55;;;2.03;;
10416;SDS011;62605;49.432;8.680;2023-05-07T07:10:35;2.40;;;2.20;;
10416;SDS011;62605;49.432;8.680;2023-05-07T07:13:02;2.63;;;2.20;;
10416;SDS011;62605;49.432;8.680;2023-05-07T07:15:29;2.70;;;2.15;;
10416;SDS011;62605;49.432;8.680;2023-05-07T07:17:58;3.83;;;2.38;;
10416;SDS011;62605;49.432;8.680;2023-05-07T07:20:26;2.90;;;2.35;;
10416;SDS011;62605;49.432;8.680;2023-05-07T07:23:02;2.70;;;2.42;;
10416;SDS011;62605;49.432;8.680;2023-05-07T07:25:30;2.53;;;2.20;;
10416;SDS011;62605;49.432;8.680;2023-05-07T07:27:56;4.90;;;2.28;;
10416;SDS011;62605;49.432;8.680;2023-05-07T07:30:25;3.40;;;2.00;;
10416;SDS011;62605;49.432;8.680;2023-05-07T07:32:52;3.90;;;2.17;;
10416;SDS011;62605;49.432;8.680;2023-05-07T07:35:21;2.50;;;2.17;;
10416;SDS011;62605;49.432;8.680;2023-05-07T07:37:48;2.42;;;2.17;;
10416;SDS011;62605;49.432;8.680;2023-05-07T07:40:15;2.03;;;1.85;;
10416;SDS011;62605;49.432;8.680;2023-05-07T07:42:42;1.55;;;1.45;;
10416;SDS011;62605;49.432;8.680;2023-05-07T07:45:10;2.33;;;1.90;;
10416;SDS011;62605;49.432;8.680;2023-05-07T07:47:37;2.53;;;1.70;;
10416;SDS011;62605;49.432;8.680;2023-05-07T07:50:05;2.22;;;1.67;;
10416;SDS011;62605;49.432;8.680;2023-05-07T07:52:34;1.48;;;1.38;;
10416;SDS011;62605;49.432;8.680;2023-05-07T07:55:01;2.75;;;1.73;;
10416;SDS011;62605;49.432;8.680;2023-05-07T07:57:29;3.28;;;1.60;;
10416;SDS011;62605;49.432;8.680;2023-05-07T07:59:56;2.03;;;1.80;;
10416;SDS011;62605;49.432;8.680;2023-05-07T08:02:24;2.88;;;1.88;;
10416;SDS011;62605;49.432;8.680;2023-05-07T08:04:51;1.83;;;1.73;;
10416;SDS011;62605;49.432;8.680;2023-05-07T08:07:18;2.83;;;1.98;;
10416;SDS011;62605;49.432;8.680;2023-05-07T08:09:49;2.25;;;2.05;;
10416;SDS011;62605;49.432;8.680;2023-05-07T08:12:16;2.00;;;1.80;;
10416;SDS011;62605;49.432;8.680;2023-05-07T08:14:43;1.88;;;1.77;;
10416;SDS011;62605;49.432;8.680;2023-05-07T08:17:10;1.98;;;1.75;;
10416;SDS011;62605;49.432;8.680;2023-05-07T08:19:37;2.15;;;1.85;;
10416;SDS011;62605;49.432;8.680;2023-05-07T08:22:04;3.15;;;2.00;;
10416;SDS011;62605;49.432;8.680;2023-05-07T08:24:32;1.90;;;1.50;;
10416;SDS011;62605;49.432;8.680;2023-05-07T08:27:00;2.40;;;1.80;;
10416;SDS011;62605;49.432;8.680;2023-05-07T08:29:27;1.73;;;1.42;;
10416;SDS011;62605;49.432;8.680;2023-05-07T08:31:54;2.38;;;1.77;;
10416;SDS011;62605;49.432;8.680;2023-05-07T08:34:22;1.55;;;1.45;;
10416;SDS011;62605;49.432;8.680;2023-05-07T08:36:49;2.17;;;1.70;;
10416;SDS011;62605;49.432;8.680;2023-05-07T08:39:16;1.80;;;1.70;;
10416;SDS011;62605;49.432;8.680;2023-05-07T08:41:44;3.78;;;1.58;;
10416;SDS011;62605;49.432;8.680;2023-05-07T08:44:13;1.52;;;1.42;;
10416;SDS011;62605;49.432;8.680;2023-05-07T08:46:41;2.67;;;1.70;;
10416;SDS011;62605;49.432;8.680;2023-05-07T08:49:08;2.92;;;1.42;;
10416;SDS011;62605;49.432;8.680;2023-05-07T08:51:36;1.70;;;1.45;;
10416;SDS011;62605;49.432;8.680;2023-05-07T08:54:03;2.70;;;1.55;;
10416;SDS011;62605;49.432;8.680;2023-05-07T08:56:31;3.70;;;1.98;;
10416;SDS011;62605;49.432;8.680;2023-05-07T08:59:00;2.97;;;2.13;;
10416;SDS011;62605;49.432;8.680;2023-05-07T09:01:30;1.90;;;1.80;;
10416;SDS011;62605;49.432;8.680;2023-05-07T09:03:57;3.58;;;1.90;;
10416;SDS011;62605;49.432;8.680;2023-05-07T09:06:25;2.50;;;2.25;;
10416;SDS011;62605;49.432;8.680;2023-05-07T09:08:53;1.75;;;1.63;;
10416;SDS011;62605;49.432;8.680;2023-05-07T09:11:21;2.08;;;1.80;;
10416;SDS011;62605;49.432;8.680;2023-05-07T09:13:49;1.60;;;1.50;;
10416;SDS011;62605;49.432;8.680;2023-05-07T09:16:20;1.70;;;1.60;;
10416;SDS011;62605;49.432;8.680;2023-05-07T09:18:50;1.73;;;1.50;;
10416;SDS011;62605;49.432;8.680;2023-05-07T09:21:19;2.67;;;1.60;;
10416;SDS011;62605;49.432;8.680;2023-05-07T09:23:50;1.50;;;1.40;;
10416;SDS011;62605;49.432;8.680;2023-05-07T09:26:19;1.30;;;1.20;;
10416;SDS011;62605;49.432;8.680;2023-05-07T09:28:47;1.30;;;1.20;;
10416;SDS011;62605;49.432;8.680;2023-05-07T09:31:17;2.17;;;1.35;;
10416;SDS011;62605;49.432;8.680;2023-05-07T09:33:44;1.48;;;1.38;;
10416;SDS011;62605;49.432;8.680;2023-05-07T09:36:14;2.40;;;1.60;;
10416;SDS011;62605;49.432;8.680;2023-05-07T09:38:41;2.35;;;1.50;;
10416;SDS011;62605;49.432;8.680;2023-05-07T09:41:09;1.70;;;1.60;;
10416;SDS011;62605;49.432;8.680;2023-05-07T09:43:38;2.28;;;1.50;;
10416;SDS011;62605;49.432;8.680;2023-05-07T09:46:06;1.58;;;1.48;;
10416;SDS011;62605;49.432;8.680;2023-05-07T09:48:35;2.45;;;1.63;;
10416;SDS011;62605;49.432;8.680;2023-05-07T09:51:06;3.97;;;1.48;;
10416;SDS011;62605;49.432;8.680;2023-05-07T09:53:47;3.50;;;1.70;;
10416;SDS011;62605;49.432;8.680;2023-05-07T09:56:16;1.38;;;1.27;;
10416;SDS011;62605;49.432;8.680;2023-05-07T09:58:45;1.80;;;1.58;;
10416;SDS011;62605;49.432;8.680;2023-05-07T10:01:12;2.20;;;1.45;;
10416;SDS011;62605;49.432;8.680;2023-05-07T10:03:40;2.13;;;1.55;;
10416;SDS011;62605;49.432;8.680;2023-05-07T10:06:08;3.35;;;1.80;;
10416;SDS011;62605;49.432;8.680;2023-05-07T10:08:36;1.35;;;1.25;;
10416;SDS011;62605;49.432;8.680;2023-05-07T10:11:05;1.95;;;1.63;;
10416;SDS011;62605;49.432;8.680;2023-05-07T10:13:34;2.28;;;1.90;;
10416;SDS011;62605;49.432;8.680;2023-05-07T10:16:04;1.55;;;1.45;;
10416;SDS011;62605;49.432;8.680;2023-05-07T10:18:32;1.83;;;1.73;;
10416;SDS011;62605;49.432;8.680;2023-05-07T10:21:02;1.90;;;1.70;;
10416;SDS011;62605;49.432;8.680;2023-05-07T10:23:34;3.38;;;1.70;;
10416;SDS011;62605;49.432;8.680;2023-05-07T10:26:03;2.67;;;1.88;;
10416;SDS011;62605;49.432;8.680;2023-05-07T10:28:34;1.73;;;1.63;;
10416;SDS011;62605;49.432;8.680;2023-05-07T10:31:07;1.65;;;1.45;;
10416;SDS011;62605;49.432;8.680;2023-05-07T10:33:43;2.42;;;1.55;;
10416;SDS011;62605;49.432;8.680;2023-05-07T10:36:12;2.60;;;1.75;;
10416;SDS011;62605;49.432;8.680;2023-05-07T10:38:39;2.30;;;1.40;;
10416;SDS011;62605;49.432;8.680;2023-05-07T10:41:08;1.77;;;1.60;;
10416;SDS011;62605;49.432;8.680;2023-05-07T10:43:39;2.03;;;1.70;;
10416;SDS011;62605;49.432;8.680;2023-05-07T10:46:14;1.65;;;1.55;;
10416;SDS011;62605;49.432;8.680;2023-05-07T10:51:36;1.65;;;1.50;;
10416;SDS011;62605;49.432;8.680;2023-05-07T10:54:22;1.60;;;1.50;;
10416;SDS011;62605;49.432;8.680;2023-05-07T10:56:53;1.20;;;1.10;;
10416;SDS011;62605;49.432;8.680;2023-05-07T10:59:30;1.40;;;1.30;;
10416;SDS011;62605;49.432;8.680;2023-05-07T11:02:06;1.33;;;1.23;;
10416;SDS011;62605;49.432;8.680;2023-05-07T11:04:35;1.67;;;1.58;;
10416;SDS011;62605;49.432;8.680;2023-05-07T11:09:57;1.23;;;1.13;;
10416;SDS011;62605;49.432;8.680;2023-05-07T11:28:58;1.58;;;1.15;;
10416;SDS011;62605;49.432;8.680;2023-05-07T11:31:27;1.23;;;1.13;;
10416;SDS011;62605;49.432;8.680;2023-05-07T11:33:55;2.13;;;1.58;;
10416;SDS011;62605;49.432;8.680;2023-05-07T11:36:23;1.33;;;1.23;;
10416;SDS011;62605;49.432;8.680;2023-05-07T11:38:52;1.10;;;1.00;;
10416;SDS011;62605;49.432;8.680;2023-05-07T11:41:18;1.52;;;1.10;;
10416;SDS011;62605;49.432;8.680;2023-05-07T11:43:53;2.13;;;1.30;;
10416;SDS011;62605;49.432;8.680;2023-05-07T11:46:23;2.30;;;1.08;;
10416;SDS011;62605;49.432;8.680;2023-05-07T11:48:50;1.17;;;1.08;;
10416;SDS011;62605;49.432;8.680;2023-05-07T11:51:21;0.95;;;0.95;;
10416;SDS011;62605;49.432;8.680;2023-05-07T11:53:51;1.30;;;1.17;;
10416;SDS011;62605;49.432;8.680;2023-05-07T11:56:18;1.35;;;1.17;;
10416;SDS011;62605;49.432;8.680;2023-05-07T11:58:46;1.17;;;1.10;;
10416;SDS011;62605;49.432;8.680;2023-05-07T12:01:14;1.00;;;1.00;;
10416;SDS011;62605;49.432;8.680;2023-05-07T12:03:45;1.23;;;1.13;;
10416;SDS011;62605;49.432;8.680;2023-05-07T12:06:12;1.38;;;1.15;;
10416;SDS011;62605;49.432;8.680;2023-05-07T12:08:41;1.38;;;1.27;;
10416;SDS011;62605;49.432;8.680;2023-05-07T12:11:10;1.33;;;1.23;;
10416;SDS011;62605;49.432;8.680;2023-05-07T12:13:41;1.45;;;1.35;;
10416;SDS011;62605;49.432;8.680;2023-05-07T12:16:08;2.35;;;1.30;;
10416;SDS011;62605;49.432;8.680;2023-05-07T12:18:36;1.17;;;1.10;;
10416;SDS011;62605;49.432;8.680;2023-05-07T12:21:05;2.38;;;1.30;;
10416;SDS011;62605;49.432;8.680;2023-05-07T12:34:18;1.67;;;1.40;;
10416;SDS011;62605;49.432;8.680;2023-05-07T12:36:50;2.05;;;1.42;;
10416;SDS011;62605;49.432;8.680;2023-05-07T12:39:17;4.07;;;1.30;;
10416;SDS011;62605;49.432;8.680;2023-05-07T12:41:53;1.63;;;1.40;;
10416;SDS011;62605;49.432;8.680;2023-05-07T12:44:22;1.50;;;1.40;;
10416;SDS011;62605;49.432;8.680;2023-05-07T12:46:50;2.20;;;1.40;;
10416;SDS011;62605;49.432;8.680;2023-05-07T12:49:17;1.58;;;1.48;;
10416;SDS011;62605;49.432;8.680;2023-05-07T12:51:44;2.33;;;1.60;;
10416;SDS011;62605;49.432;8.680;2023-05-07T12:54:27;1.30;;;1.20;;
10416;SDS011;62605;49.432;8.680;2023-05-07T12:56:59;1.40;;;1.30;;
10416;SDS011;62605;49.432;8.680;2023-05-07T12:59:30;2.63;;;1.50;;
10416;SDS011;62605;49.432;8.680;2023-05-07T13:01:58;2.20;;;1.40;;
10416;SDS011;62605;49.432;8.680;2023-05-07T13:04:25;1.30;;;1.20;;
10416;SDS011;62605;49.432;8.680;2023-05-07T13:06:56;1.50;;;1.27;;
10416;SDS011;62605;49.432;8.680;2023-05-07T13:09:23;1.77;;;1.40;;
10416;SDS011;62605;49.432;8.680;2023-05-07T13:11:50;1.42;;;1.33;;
10416;SDS011;62605;49.432;8.680;2023-05-07T13:14:17;1.10;;;1.10;;
10416;SDS011;62605;49.432;8.680;2023-05-07T13:16:45;2.03;;;1.38;;
10416;SDS011;62605;49.432;8.680;2023-05-07T13:19:12;1.50;;;1.23;;
10416;SDS011;62605;49.432;8.680;2023-05-07T13:21:40;1.67;;;1.45;;
10416;SDS011;62605;49.432;8.680;2023-05-07T13:24:08;2.17;;;1.60;;
10416;SDS011;62605;49.432;8.680;2023-05-07T13:26:35;1.70;;;1.60;;
10416;SDS011;62605;49.432;8.680;2023-05-07T13:29:02;1.50;;;1.40;;
10416;SDS011;62605;49.432;8.680;2023-05-07T13:31:29;1.63;;;1.50;;
10416;SDS011;62605;49.432;8.680;2023-05-07T13:33:57;1.45;;;1.35;;
10416;SDS011;62605;49.432;8.680;2023-05-07T13:36:24;1.60;;;1.50;;
10416;SDS011;62605;49.432;8.680;2023-05-07T13:38:51;1.60;;;1.50;;
10416;SDS011;62605;49.432;8.680;2023-05-07T13:41:20;1.98;;;1.70;;
10416;SDS011;62605;49.432;8.680;2023-05-07T13:43:47;1.50;;;1.40;;
10416;SDS011;62605;49.432;8.680;2023-05-07T13:46:13;1.83;;;1.60;;
10416;SDS011;62605;49.432;8.680;2023-05-07T13:48:44;1.33;;;1.25;;
10416;SDS011;62605;49.432;8.680;2023-05-07T13:51:11;1.98;;;1.50;;
10416;SDS011;62605;49.432;8.680;2023-05-07T13:53:38;2.85;;;1.90;;
10416;SDS011;62605;49.432;8.680;2023-05-07T13:59:28;2.53;;;2.10;;
10416;SDS011;62605;49.432;8.680;2023-05-07T14:01:55;2.90;;;1.58;;
10416;SDS011;62605;49.432;8.680;2023-05-07T14:04:22;3.08;;;1.50;;
10416;SDS011;62605;49.432;8.680;2023-05-07T14:06:49;5.82;;;1.73;;
10416;SDS011;62605;49.432;8.680;2023-05-07T14:09:16;2.08;;;1.50;;
10416;SDS011;62605;49.432;8.680;2023-05-07T14:11:43;2.15;;;1.95;;
10416;SDS011;62605;49.432;8.680;2023-05-07T14:14:15;2.53;;;2.25;;
10416;SDS011;62605;49.432;8.680;2023-05-07T14:16:43;4.45;;;2.30;;
10416;SDS011;62605;49.432;8.680;2023-05-07T14:19:11;3.03;;;2.42;;
10416;SDS011;62605;49.432;8.680;2023-05-07T14:21:38;3.85;;;1.85;;
10416;SDS011;62605;49.432;8.680;2023-05-07T14:24:06;2.08;;;1.30;;
10416;SDS011;62605;49.432;8.680;2023-05-07T14:26:33;1.90;;;1.63;;
10416;SDS011;62605;49.432;8.680;2023-05-07T14:29:00;3.28;;;1.65;;
10416;SDS011;62605;49.432;8.680;2023-05-07T14:31:28;4.53;;;2.10;;
10416;SDS011;62605;49.432;8.680;2023-05-07T14:33:56;5.30;;;2.05;;
10416;SDS011;62605;49.432;8.680;2023-05-07T14:36:27;3.67;;;2.10;;
10416;SDS011;62605;49.432;8.680;2023-05-07T14:38:55;2.83;;;2.38;;
10416;SDS011;62605;49.432;8.680;2023-05-07T14:41:24;3.22;;;2.22;;
10416;SDS011;62605;49.432;8.680;2023-05-07T14:43:51;4.63;;;2.40;;
10416;SDS011;62605;49.432;8.680;2023-05-07T14:46:19;5.93;;;2.47;;
10416;SDS011;62605;49.432;8.680;2023-05-07T14:48:46;7.15;;;2.67;;
10416;SDS011;62605;49.432;8.680;2023-05-07T14:51:15;3.03;;;2.10;;
10416;SDS011;62605;49.432;8.680;2023-05-07T14:53:42;4.22;;;2.03;;
10416;SDS011;62605;49.432;8.680;2023-05-07T14:56:09;4.28;;;2.30;;
10416;SDS011;62605;49.432;8.680;2023-05-07T14:58:36;4.28;;;2.30;;
10416;SDS011;62605;49.432;8.680;2023-05-07T15:01:03;4.20;;;1.77;;
10416;SDS011;62605;49.432;8.680;2023-05-07T15:03:31;2.00;;;1.80;;
10416;SDS011;62605;49.432;8.680;2023-05-07T15:05:58;2.25;;;1.92;;
10416;SDS011;62605;49.432;8.680;2023-05-07T15:08:27;4.82;;;2.22;;
10416;SDS011;62605;49.432;8.680;2023-05-07T15:10:54;12.82;;;2.17;;
10416;SDS011;62605;49.432;8.680;2023-05-07T15:13:21;2.78;;;2.10;;
10416;SDS011;62605;49.432;8.680;2023-05-07T15:15:49;3.05;;;1.58;;
10416;SDS011;62605;49.432;8.680;2023-05-07T15:18:16;4.32;;;1.80;;
10416;SDS011;62605;49.432;8.680;2023-05-07T15:20:42;3.22;;;1.80;;
10416;SDS011;62605;49.432;8.680;2023-05-07T15:23:13;1.98;;;1.80;;
10416;SDS011;62605;49.432;8.680;2023-05-07T15:25:41;6.03;;;1.85;;
10416;SDS011;62605;49.432;8.680;2023-05-07T15:28:08;2.65;;;1.88;;
10416;SDS011;62605;49.432;8.680;2023-05-07T15:30:45;5.10;;;1.77;;
10416;SDS011;62605;49.432;8.680;2023-05-07T15:33:12;4.60;;;1.90;;
10416;SDS011;62605;49.432;8.680;2023-05-07T15:35:39;3.05;;;1.75;;
10416;SDS011;62605;49.432;8.680;2023-05-07T15:38:06;3.03;;;1.85;;